createdAt,value
2019-06-27T00:00:09.211Z,100880.42
2019-06-27T00:05:12.900Z,100891.66
2019-06-27T00:10:16.411Z,100889.92
2019-06-27T00:15:19.863Z,100885.70
2019-06-27T00:20:23.313Z,100889.30
2019-06-27T00:25:26.758Z,100893.34
2019-06-27T00:30:30.209Z,100886.16
2019-06-27T00:35:33.667Z,100895.98
2019-06-27T00:40:37.115Z,100893.01
2019-06-27T00:45:40.563Z,100891.44
2019-06-27T00:50:44.863Z,100901.88
2019-06-27T00:55:48.310Z,100899.08
2019-06-27T01:00:51.762Z,100905.31
2019-06-27T01:05:55.213Z,100905.95
2019-06-27T01:10:58.658Z,100912.81
2019-06-27T01:16:02.121Z,100916.23
2019-06-27T01:21:05.738Z,100921.68
2019-06-27T01:26:09.186Z,100934.93
2019-06-27T01:31:12.864Z,100927.12
2019-06-27T01:36:16.329Z,100935.37
2019-06-27T01:41:19.764Z,100939.26
2019-06-27T01:46:23.213Z,100943.64
2019-06-27T01:51:26.658Z,100947.67
2019-06-27T01:56:30.109Z,100952.98
2019-06-27T02:01:33.555Z,100955.63
2019-06-27T02:06:37.005Z,100957.03
2019-06-27T02:11:40.453Z,100968.09
2019-06-27T02:16:43.896Z,100966.52
2019-06-27T02:21:47.338Z,100969.16
2019-06-27T02:26:50.783Z,100977.27
2019-06-27T02:31:54.236Z,100985.69
2019-06-27T02:36:57.685Z,100971.48
2019-06-27T02:42:01.133Z,100975.52
2019-06-27T02:47:04.617Z,100973.14
2019-06-27T02:52:08.028Z,100992.00
2019-06-27T02:57:11.479Z,100998.05
2019-06-27T03:02:14.923Z,100988.72
2019-06-27T03:07:18.368Z,100996.48
2019-06-27T03:12:21.901Z,101007.40
2019-06-27T03:17:25.336Z,101014.86
2019-06-27T03:22:28.780Z,101019.25
2019-06-27T03:27:32.371Z,101012.67
2019-06-27T03:32:35.824Z,101026.70
2019-06-27T03:37:39.275Z,101033.55
2019-06-27T03:42:42.727Z,101026.36
2019-06-27T03:47:46.558Z,101034.00
2019-06-27T03:52:50.006Z,101038.82
2019-06-27T03:57:53.455Z,101044.30
2019-06-27T04:02:56.915Z,101045.70
2019-06-27T04:08:00.367Z,101050.05
2019-06-27T04:13:03.823Z,101047.41
2019-06-27T04:18:07.278Z,101029.86
2019-06-27T04:23:10.718Z,101059.14
2019-06-27T04:28:14.235Z,101062.12
2019-06-27T04:33:17.684Z,101065.88
2019-06-27T04:38:21.133Z,101058.39
2019-06-27T04:43:24.579Z,101056.99
2019-06-27T04:48:28.029Z,101061.98
2019-06-27T04:53:31.488Z,101065.09
2019-06-27T04:58:34.922Z,101063.08
2019-06-27T05:03:38.366Z,101062.30
2019-06-27T05:08:41.818Z,101068.83
2019-06-27T05:13:45.265Z,101066.50
2019-06-27T05:18:48.876Z,101076.77
2019-06-27T05:23:52.270Z,101078.79
2019-06-27T05:28:55.722Z,101080.81
2019-06-27T05:33:59.190Z,101074.23
2019-06-27T05:39:02.779Z,101078.95
2019-06-27T05:44:06.226Z,101079.58
2019-06-27T05:49:09.676Z,101078.34
2019-06-27T05:54:13.123Z,101083.95
2019-06-27T05:59:16.566Z,101087.08
2019-06-27T06:04:23.784Z,101096.89
2019-06-27T06:09:25.187Z,101096.28
2019-06-27T06:14:28.646Z,101093.47
2019-06-27T06:19:32.068Z,101088.64
2019-06-27T06:24:35.517Z,101097.23
2019-06-27T06:29:38.953Z,101101.65
2019-06-27T06:34:42.423Z,101108.66
2019-06-27T06:39:45.872Z,101115.50
2019-06-27T06:44:49.352Z,101111.08
2019-06-27T06:49:52.784Z,101112.75
2019-06-27T06:54:56.254Z,101093.92
2019-06-27T06:59:59.702Z,101109.45
2019-06-27T07:05:03.429Z,101109.14
2019-06-27T07:10:07.974Z,101108.80
2019-06-27T07:15:11.765Z,101106.02
2019-06-27T07:20:15.359Z,101103.69
2019-06-27T07:25:18.821Z,101099.74
2019-06-27T07:30:22.269Z,101102.47
2019-06-27T07:35:25.731Z,101100.28
2019-06-27T07:40:29.185Z,101101.68
2019-06-27T07:45:32.644Z,101101.85
2019-06-27T07:50:36.094Z,101107.44
2019-06-27T07:55:39.544Z,101113.38
2019-06-27T08:00:43.008Z,101103.05
2019-06-27T08:05:46.643Z,101107.51
2019-06-27T08:10:50.093Z,101101.83
2019-06-27T08:15:53.551Z,101097.81
2019-06-27T08:20:57.018Z,101091.17
2019-06-27T08:26:00.485Z,101094.48
2019-06-27T08:31:04.019Z,101084.83
2019-06-27T08:36:07.473Z,101082.82
2019-06-27T08:41:13.994Z,101076.22
2019-06-27T08:46:16.108Z,101079.69
2019-06-27T08:51:19.575Z,101079.84
2019-06-27T08:56:23.036Z,101076.36
2019-06-27T09:01:26.670Z,101071.30
2019-06-27T09:06:30.125Z,101070.95
2019-06-27T09:11:37.817Z,101083.34
2019-06-27T09:16:38.765Z,101071.03
2019-06-27T09:21:42.218Z,101069.62
2019-06-27T09:26:45.697Z,101057.98
2019-06-27T09:31:49.139Z,101071.94
2019-06-27T09:36:52.599Z,101063.23
2019-06-27T09:41:56.057Z,101042.77
2019-06-27T09:46:59.508Z,101052.48
2019-06-27T09:52:02.962Z,101055.17
2019-06-27T09:57:06.417Z,101049.50
2019-06-27T10:02:09.968Z,101050.19
2019-06-27T10:07:13.407Z,101049.14
2019-06-27T10:12:16.867Z,101048.28
2019-06-27T10:17:20.324Z,101041.61
2019-06-27T10:22:23.780Z,101036.12
2019-06-27T10:27:27.234Z,101032.42
2019-06-27T10:32:30.690Z,101028.94
2019-06-27T10:37:34.149Z,101020.72
2019-06-27T10:42:37.651Z,101015.63
2019-06-27T10:47:41.097Z,101020.78
2019-06-27T10:52:44.605Z,101026.27
2019-06-27T10:57:48.013Z,101023.06
2019-06-27T11:02:51.482Z,101017.83
2019-06-27T11:07:54.937Z,101025.50
2019-06-27T11:12:59.645Z,101017.45
2019-06-27T11:18:03.236Z,101008.80
2019-06-27T11:23:06.709Z,101012.88
2019-06-27T11:28:10.418Z,101004.66
2019-06-27T11:33:13.903Z,100994.61
2019-06-27T11:38:17.355Z,101004.90
2019-06-27T11:43:20.815Z,100991.69
2019-06-27T11:48:24.275Z,101001.66
2019-06-27T11:53:27.748Z,100989.41
2019-06-27T11:58:31.183Z,100985.56
2019-06-27T12:03:48.426Z,100979.06
2019-06-27T12:08:39.824Z,100979.59
2019-06-27T12:13:43.272Z,100972.77
2019-06-27T12:18:46.723Z,100973.42
2019-06-27T12:23:50.176Z,100975.79
2019-06-27T12:28:53.708Z,100969.75
2019-06-27T12:34:06.903Z,100969.28
2019-06-27T12:39:02.355Z,100971.82
2019-06-27T12:44:05.817Z,100957.99
2019-06-27T12:49:09.264Z,100949.77
2019-06-27T12:54:12.718Z,100950.11
2019-06-27T12:59:16.173Z,100943.25
2019-06-27T13:04:23.918Z,100938.17
2019-06-27T13:09:24.901Z,100929.33
2019-06-27T13:14:28.447Z,100927.48
2019-06-27T13:19:31.912Z,100923.60
2019-06-27T13:24:35.353Z,100922.55
2019-06-27T13:29:38.803Z,100917.12
2019-06-27T13:34:42.327Z,100912.51
2019-06-27T13:39:45.810Z,100907.08
2019-06-27T13:44:49.397Z,100909.41
2019-06-27T13:49:52.872Z,100912.38
2019-06-27T13:54:56.292Z,100907.73
2019-06-27T14:00:01.346Z,100903.09
2019-06-27T14:05:07.724Z,100903.41
2019-06-27T14:10:11.732Z,100891.93
2019-06-27T14:15:15.497Z,100893.67
2019-06-27T14:20:18.964Z,100886.23
2019-06-27T14:25:22.410Z,100886.40
2019-06-27T14:30:26.197Z,100879.71
2019-06-27T14:35:29.645Z,100876.63
2019-06-27T14:40:33.090Z,100873.39
2019-06-27T14:45:36.540Z,100866.86
2019-06-27T14:50:39.985Z,100871.58
2019-06-27T14:55:43.435Z,100870.66
2019-06-27T15:00:46.955Z,100868.37
2019-06-27T15:05:50.398Z,100868.88
2019-06-27T15:11:00.100Z,100860.95
2019-06-27T15:16:11.971Z,100862.69
2019-06-27T15:21:08.745Z,100857.42
2019-06-27T15:26:12.189Z,100856.34
2019-06-27T15:31:15.644Z,100846.25
2019-06-27T15:36:19.080Z,100847.37
2019-06-27T15:41:22.555Z,100846.28
2019-06-27T15:46:26.175Z,100835.69
2019-06-27T15:51:29.568Z,100841.18
2019-06-27T15:56:33.031Z,100833.56
2019-06-27T16:01:36.486Z,100828.42
2019-06-27T16:06:39.967Z,100827.56
2019-06-27T16:11:43.409Z,100829.92
2019-06-27T16:16:46.855Z,100816.85
2019-06-27T16:21:50.304Z,100827.14
2019-06-27T16:26:53.747Z,100814.86
2019-06-27T16:31:57.362Z,100825.80
2019-06-27T16:37:00.822Z,100817.86
2019-06-27T16:42:04.258Z,100824.25
2019-06-27T16:47:07.702Z,100818.02
2019-06-27T16:52:11.170Z,100809.16
2019-06-27T16:57:14.672Z,100820.55
2019-06-27T17:02:18.122Z,100816.81
2019-06-27T17:07:21.565Z,100815.24
2019-06-27T17:12:25.007Z,100820.40
2019-06-27T17:17:28.460Z,100818.83
2019-06-27T17:22:31.908Z,100819.00
2019-06-27T17:27:35.522Z,100825.84
2019-06-27T17:32:38.964Z,100832.69
2019-06-27T17:37:42.408Z,100824.92
2019-06-27T17:42:45.858Z,100832.21
2019-06-27T17:47:49.309Z,100835.02
2019-06-27T17:52:53.405Z,100835.02
2019-06-27T17:57:56.882Z,100834.06
2019-06-27T18:03:00.328Z,100824.87
2019-06-27T18:08:03.792Z,100827.67
2019-06-27T18:13:07.249Z,100818.30
2019-06-27T18:18:10.719Z,100825.62
2019-06-27T18:23:14.159Z,100824.84
2019-06-27T18:28:17.600Z,100832.47
2019-06-27T18:33:21.044Z,100826.35
2019-06-27T18:38:24.484Z,100824.17
2019-06-27T18:43:27.939Z,100826.05
2019-06-27T18:48:31.780Z,100823.86
2019-06-27T18:53:35.234Z,100823.86
2019-06-27T18:58:38.683Z,100834.51
2019-06-27T19:03:42.125Z,100835.58
2019-06-27T19:08:45.577Z,100838.97
2019-06-27T19:13:49.036Z,100848.27
2019-06-27T19:18:54.133Z,100861.77
2019-06-27T19:23:59.220Z,100862.87
2019-06-27T19:29:14.259Z,100877.49
2019-06-27T19:34:17.701Z,100882.42
2019-06-27T19:39:21.136Z,100896.73
2019-06-27T19:44:24.996Z,100904.97
2019-06-27T19:49:28.460Z,100911.63
2019-06-27T19:54:31.892Z,100917.24
2019-06-27T19:59:35.400Z,100928.72
2019-06-27T20:04:38.842Z,100936.20
2019-06-27T20:09:42.818Z,100929.47
2019-06-27T20:14:46.289Z,100929.59
2019-06-27T20:19:49.745Z,100925.05
2019-06-27T20:24:53.215Z,100930.05
2019-06-27T20:29:57.748Z,100927.85
2019-06-27T20:35:01.213Z,100933.28
2019-06-27T20:40:07.783Z,100931.54
2019-06-27T20:45:11.928Z,100937.59
2019-06-27T20:50:15.400Z,100941.03
2019-06-27T20:55:18.859Z,100940.69
2019-06-27T21:00:22.663Z,100946.83
2019-06-27T21:05:26.129Z,100946.95
2019-06-27T21:10:29.591Z,100952.83
2019-06-27T21:15:33.063Z,100958.52
2019-06-27T21:20:36.505Z,100971.39
2019-06-27T21:25:39.972Z,100976.64
2019-06-27T21:30:44.767Z,100983.16
2019-06-27T21:35:48.237Z,100991.21
2019-06-27T21:40:51.689Z,100992.27
2019-06-27T21:45:55.170Z,100999.27
2019-06-27T21:50:58.595Z,101001.19
2019-06-27T21:56:02.155Z,100987.97
2019-06-27T22:01:05.588Z,101003.98
2019-06-27T22:06:09.185Z,101006.61
2019-06-27T22:11:12.650Z,101007.84
2019-06-27T22:16:16.105Z,101015.92
2019-06-27T22:21:19.557Z,101016.36
2019-06-27T22:26:24.144Z,101022.58
2019-06-27T22:31:27.597Z,101023.45
2019-06-27T22:36:31.055Z,101026.08
2019-06-27T22:41:52.780Z,101025.93
2019-06-27T22:47:14.513Z,101023.22
2019-06-27T22:52:22.408Z,101026.10
2019-06-27T22:57:25.868Z,101027.62
2019-06-27T23:02:29.334Z,101032.25
2019-06-27T23:07:32.828Z,101026.77
2019-06-27T23:12:36.275Z,101031.05
2019-06-27T23:17:39.724Z,101032.56
2019-06-27T23:22:43.177Z,101034.23
2019-06-27T23:27:47.372Z,101037.75
2019-06-27T23:32:50.993Z,101050.78
2019-06-27T23:37:54.446Z,101042.47
2019-06-27T23:42:57.916Z,101048.17
2019-06-27T23:48:01.365Z,101048.61
2019-06-27T23:53:04.826Z,101049.48
2019-06-27T23:58:08.280Z,101043.17
